Archival Weather

Norman Y Mineta San Jose Intl

San Jose, California (KSJC)

Report from: Saturday, February 3, 2024 8:53 AM PST
Current time: Monday, June 24, 2024 2:22 AM PDT

Current weather – Weather history – Daily summaries
Weather forecast

Temperature10.0°C (50.0°F)
Wind chill8.8°C (47.8°F)
Dew point6.1°C (43.0°F)
Winds 5 kts (2.6 m/s, 5.8 mph) South-Southeast (150°)
Visibility10 mi. (16.1 km)
Clouds Few clouds 3,200 ft. (975 m)
Ceiling: Broken clouds 6,500 ft. (1,981 m)
Overcast 12,000 ft. (3,658 m)
Altimeter30.02 in.Hg (1017 mB)
Relative humidity77 %
Density altitude-571 ft. (-174 m)
Sea-level pressure101.7 kPa (1017 mB, 30.02 in.Hg)
Remarks Automated weather observing station with precipitation discriminator
Flight conditions Visual Meteorological Conditions
Raw dataKSJC 031653Z 15005KT 10SM FEW032 BKN065 OVC120 10/06 A3002 RMK AO2 SLP165 T01000061
An error has occurred. This application may no longer respond until reloaded. Reload 🗙